Ozery, Russia
Current Conditions -  °F | °C
As of 3:00 PM on Friday 21 Nov 2014 (Local Time) from UUDD Reporting Station
Haze Haze  
Wind Chill: 23°   Ceiling: Unl
Heat Index: 28°   Visibility: 2.5mi
Dew Point: 23°   Wind: 4mph
Humidity: 80%   Direction: 160°SSE
Pressure: 30.53"   Gusts: NA
Location:  54.85°N, 38.55°E
Report Text: UUDD 211200Z 16002MPS 4100 BR FEW200 M02/M05 Q1034 6429009514290095 NOSIG
Loading
Personal Weather Stations






























Interactive Weather Map New forecast layout! Learn more

10-Day Weather Forecast

Advertisements
Track Severe Weather on mobile